Abel Tasman — PCVM — position and weather

sailwx.info

Track history (hours):
 
Tides and Currents Weather Stations Pressure Air Temp Water Temp Dewpoint Dewpoint Depression Visibility Wind Speed Wind Dir Waves Ship Positions

Abel Tasman (Netherlands)

Last reported at 2018-Jun-20 02:09 UTC. Time now 2018-Jun-22 01:38 UTC.
Position N 54°20' E 010°09'.

Length 38 m; draft 2.4 m.

Type: Sailing vessel. MMSI: 245877000.

Date/timePositionNaut miles runAvg speedWind from/ knotsBaromVisibWave heightAir tempDewpointWater temp
2018-Jun-20 02:09N 54°20' E 010°09'  
2018-Jun-16 23:03N 54°20' E 010°09'0 0.1
2018-Jun-16 23:00N 54°20' E 010°09'0 0.0
2018-Jun-16 15:28N 54°20' E 010°09'13 0.3
2018-Jun-14 15:30N 54°33' E 010°08'5 1.6
2018-Jun-14 12:01N 54°38' E 010°11'0 4.5
2018-Jun-14 11:58N 54°38' E 010°10'21 1.0
2018-Jun-13 14:28N 54°54' E 009°47'17 0.3
2018-Jun-11 15:03N 54°58' E 010°15'1 4.1
2018-Jun-11 14:43N 54°57' E 010°16'2 1.9
2018-Jun-11 13:33N 54°58' E 010°20'0 6.0
2018-Jun-11 13:28N 54°57' E 010°20'3 6.1
2018-Jun-11 12:58N 54°54' E 010°21'3 6.4
2018-Jun-11 12:31N 54°57' E 010°23'1 2.4
2018-Jun-11 12:01N 54°56' E 010°24'1 1.7
2018-Jun-11 11:30N 54°56' E 010°26'2 3.6
2018-Jun-11 11:01N 54°56' E 010°29'3 5.6
2018-Jun-11 10:30N 54°54' E 010°32'2 3.3
2018-Jun-11 10:01N 54°52' E 010°33'2 3.0
2018-Jun-11 09:30N 54°51' E 010°31'0 0.1
2018-Jun-11 09:00N 54°51' E 010°31'0 0.0
2018-Jun-11 08:30N 54°51' E 010°31'0 0.0
2018-Jun-11 08:00N 54°51' E 010°31'0 0.0
2018-Jun-11 07:30N 54°51' E 010°31'0 0.0
2018-Jun-11 07:00N 54°51' E 010°31'0 0.0
2018-Jun-11 06:30N 54°51' E 010°31'0 0.0
2018-Jun-11 05:57N 54°51' E 010°31'0 0.0
2018-Jun-11 05:30N 54°51' E 010°31'0 0.0
2018-Jun-11 05:00N 54°51' E 010°31'0 0.0
2018-Jun-11 04:30N 54°51' E 010°31'0 0.0
2018-Jun-11 04:00N 54°51' E 010°31'0 0.0
2018-Jun-11 03:30N 54°51' E 010°31'0 0.0
2018-Jun-11 03:00N 54°51' E 010°31'0 0.0
2018-Jun-11 02:30N 54°51' E 010°31'0 0.0
2018-Jun-11 02:00N 54°51' E 010°31'0 0.0
2018-Jun-11 01:30N 54°51' E 010°31'0 0.0
2018-Jun-11 01:00N 54°51' E 010°31'0 0.0
2018-Jun-11 00:30N 54°51' E 010°31'0 0.0
2018-Jun-11 00:00N 54°51' E 010°31'0 0.0
2018-Jun-10 23:30N 54°51' E 010°31'0 0.0
2018-Jun-10 22:57N 54°51' E 010°31'0 0.0
2018-Jun-10 22:30N 54°51' E 010°31'0 0.0
2018-Jun-10 22:00N 54°51' E 010°31'0 0.0
2018-Jun-10 21:30N 54°51' E 010°31'0 0.0
2018-Jun-10 21:00N 54°51' E 010°31'0 0.0
2018-Jun-10 20:30N 54°51' E 010°31'0 0.0
2018-Jun-10 20:00N 54°51' E 010°31'0 0.0
2018-Jun-10 19:30N 54°51' E 010°31'0 0.0
2018-Jun-10 19:00N 54°51' E 010°31'0 0.0
2018-Jun-10 18:30N 54°51' E 010°31'0 0.0
2018-Jun-10 18:00N 54°51' E 010°31'0 0.0
2018-Jun-10 17:30N 54°51' E 010°31'0 0.0
2018-Jun-10 17:00N 54°51' E 010°31'0 0.0
2018-Jun-10 16:27N 54°51' E 010°31'0 0.0
2018-Jun-10 15:54N 54°51' E 010°31'0 0.0
2018-Jun-10 15:30N 54°51' E 010°31'0 0.0
2018-Jun-10 15:00N 54°51' E 010°31'2 2.2
2018-Jun-10 14:00N 54°50' E 010°35'1 2.3
2018-Jun-10 13:30N 54°49' E 010°35'2 3.6
2018-Jun-10 13:00N 54°47' E 010°33'2 4.8
2018-Jun-10 12:30N 54°45' E 010°32'2 4.8
2018-Jun-10 12:00N 54°43' E 010°30'3 5.3
2018-Jun-10 11:30N 54°41' E 010°28'3 5.4
2018-Jun-10 11:00N 54°39' E 010°25'3 6.1
2018-Jun-10 10:30N 54°37' E 010°21'3 5.8
2018-Jun-10 09:58N 54°34' E 010°18'2 4.0
2018-Jun-10 09:30N 54°33' E 010°16'2 4.0
2018-Jun-10 09:00N 54°31' E 010°15'3 5.6
2018-Jun-10 08:30N 54°28' E 010°14'3 5.7
2018-Jun-10 08:00N 54°25' E 010°12'3 5.3
2018-Jun-10 07:30N 54°23' E 010°11'1 2.4
2018-Jun-10 06:58N 54°22' E 010°09'0 0.0
2018-Jun-10 06:28N 54°22' E 010°09'0 0.0
2018-Jun-10 05:55N 54°22' E 010°09'0 0.0
2018-Jun-10 05:19N 54°22' E 010°09'0 0.0
2018-Jun-10 04:52N 54°22' E 010°09'0 0.0
2018-Jun-10 04:28N 54°22' E 010°09'0 0.0
2018-Jun-10 03:58N 54°22' E 010°09'0 0.0
2018-Jun-10 02:49N 54°22' E 010°09'0 0.0
2018-Jun-10 02:28N 54°22' E 010°09'  
Track history (hours):
 
Tides and Currents Weather Stations Pressure Air Temp Water Temp Dewpoint Dewpoint Depression Visibility Wind Speed Wind Dir Waves Ship Positions

Abel Tasman (Netherlands)

Last reported at 2018-Jun-20 02:09 UTC. Time now 2018-Jun-22 01:38 UTC.
Position N 54°20' E 010°09'.

Length 38 m; draft 2.4 m.

Type: Sailing vessel. MMSI: 245877000.

Date/timePositionNaut miles runAvg speedWind from/ knotsBaromVisibWave heightAir tempDewpointWater temp
2018-Jun-20 02:09N 54°20' E 010°09'  
2018-Jun-16 23:03N 54°20' E 010°09'0 0.1
2018-Jun-16 23:00N 54°20' E 010°09'0 0.0
2018-Jun-16 15:28N 54°20' E 010°09'13 0.3
2018-Jun-14 15:30N 54°33' E 010°08'5 1.6
2018-Jun-14 12:01N 54°38' E 010°11'0 4.5
2018-Jun-14 11:58N 54°38' E 010°10'21 1.0
2018-Jun-13 14:28N 54°54' E 009°47'17 0.3
2018-Jun-11 15:03N 54°58' E 010°15'1 4.1
2018-Jun-11 14:43N 54°57' E 010°16'2 1.9
2018-Jun-11 13:33N 54°58' E 010°20'0 6.0
2018-Jun-11 13:28N 54°57' E 010°20'3 6.1
2018-Jun-11 12:58N 54°54' E 010°21'3 6.4
2018-Jun-11 12:31N 54°57' E 010°23'1 2.4
2018-Jun-11 12:01N 54°56' E 010°24'1 1.7
2018-Jun-11 11:30N 54°56' E 010°26'2 3.6
2018-Jun-11 11:01N 54°56' E 010°29'3 5.6
2018-Jun-11 10:30N 54°54' E 010°32'2 3.3
2018-Jun-11 10:01N 54°52' E 010°33'2 3.0
2018-Jun-11 09:30N 54°51' E 010°31'0 0.1
2018-Jun-11 09:00N 54°51' E 010°31'0 0.0
2018-Jun-11 08:30N 54°51' E 010°31'0 0.0
2018-Jun-11 08:00N 54°51' E 010°31'0 0.0
2018-Jun-11 07:30N 54°51' E 010°31'0 0.0
2018-Jun-11 07:00N 54°51' E 010°31'0 0.0
2018-Jun-11 06:30N 54°51' E 010°31'0 0.0
2018-Jun-11 05:57N 54°51' E 010°31'0 0.0
2018-Jun-11 05:30N 54°51' E 010°31'0 0.0
2018-Jun-11 05:00N 54°51' E 010°31'0 0.0
2018-Jun-11 04:30N 54°51' E 010°31'0 0.0
2018-Jun-11 04:00N 54°51' E 010°31'0 0.0
2018-Jun-11 03:30N 54°51' E 010°31'0 0.0
2018-Jun-11 03:00N 54°51' E 010°31'0 0.0
2018-Jun-11 02:30N 54°51' E 010°31'0 0.0
2018-Jun-11 02:00N 54°51' E 010°31'0 0.0
2018-Jun-11 01:30N 54°51' E 010°31'0 0.0
2018-Jun-11 01:00N 54°51' E 010°31'0 0.0
2018-Jun-11 00:30N 54°51' E 010°31'0 0.0
2018-Jun-11 00:00N 54°51' E 010°31'0 0.0
2018-Jun-10 23:30N 54°51' E 010°31'0 0.0
2018-Jun-10 22:57N 54°51' E 010°31'0 0.0
2018-Jun-10 22:30N 54°51' E 010°31'0 0.0
2018-Jun-10 22:00N 54°51' E 010°31'0 0.0
2018-Jun-10 21:30N 54°51' E 010°31'0 0.0
2018-Jun-10 21:00N 54°51' E 010°31'0 0.0
2018-Jun-10 20:30N 54°51' E 010°31'0 0.0
2018-Jun-10 20:00N 54°51' E 010°31'0 0.0
2018-Jun-10 19:30N 54°51' E 010°31'0 0.0
2018-Jun-10 19:00N 54°51' E 010°31'0 0.0
2018-Jun-10 18:30N 54°51' E 010°31'0 0.0
2018-Jun-10 18:00N 54°51' E 010°31'0 0.0
2018-Jun-10 17:30N 54°51' E 010°31'0 0.0
2018-Jun-10 17:00N 54°51' E 010°31'0 0.0
2018-Jun-10 16:27N 54°51' E 010°31'0 0.0
2018-Jun-10 15:54N 54°51' E 010°31'0 0.0
2018-Jun-10 15:30N 54°51' E 010°31'0 0.0
2018-Jun-10 15:00N 54°51' E 010°31'2 2.2
2018-Jun-10 14:00N 54°50' E 010°35'1 2.3
2018-Jun-10 13:30N 54°49' E 010°35'2 3.6
2018-Jun-10 13:00N 54°47' E 010°33'2 4.8
2018-Jun-10 12:30N 54°45' E 010°32'2 4.8
2018-Jun-10 12:00N 54°43' E 010°30'3 5.3
2018-Jun-10 11:30N 54°41' E 010°28'3 5.4
2018-Jun-10 11:00N 54°39' E 010°25'3 6.1
2018-Jun-10 10:30N 54°37' E 010°21'3 5.8
2018-Jun-10 09:58N 54°34' E 010°18'2 4.0
2018-Jun-10 09:30N 54°33' E 010°16'2 4.0
2018-Jun-10 09:00N 54°31' E 010°15'3 5.6
2018-Jun-10 08:30N 54°28' E 010°14'3 5.7
2018-Jun-10 08:00N 54°25' E 010°12'3 5.3
2018-Jun-10 07:30N 54°23' E 010°11'1 2.4
2018-Jun-10 06:58N 54°22' E 010°09'0 0.0
2018-Jun-10 06:28N 54°22' E 010°09'0 0.0
2018-Jun-10 05:55N 54°22' E 010°09'0 0.0
2018-Jun-10 05:19N 54°22' E 010°09'0 0.0
2018-Jun-10 04:52N 54°22' E 010°09'0 0.0
2018-Jun-10 04:28N 54°22' E 010°09'0 0.0
2018-Jun-10 03:58N 54°22' E 010°09'0 0.0
2018-Jun-10 02:49N 54°22' E 010°09'0 0.0
2018-Jun-10 02:28N 54°22' E 010°09'  

Dump ship's entire track history